createdAt,value
2023-01-21T00:02:07.996Z,99882.28
2023-01-21T00:06:15.311Z,99872.66
2023-01-21T00:10:18.966Z,99861.22
2023-01-21T00:14:23.745Z,99850.09
2023-01-21T00:18:28.785Z,99849.09
2023-01-21T00:22:33.106Z,99860.25
2023-01-21T00:26:36.191Z,99857.91
2023-01-21T00:30:41.853Z,99850.06
2023-01-21T00:34:45.535Z,99856.16
2023-01-21T00:38:50.923Z,99858.72
2023-01-21T00:42:54.416Z,99849.22
2023-01-21T00:46:59.248Z,99843.31
2023-01-21T00:51:02.864Z,99837.22
2023-01-21T00:55:06.741Z,99831.25
2023-01-21T00:59:10.252Z,99809.78
2023-01-21T01:03:14.703Z,99809.78
2023-01-21T01:07:17.719Z,99818.56
2023-01-21T01:11:21.899Z,99820.41
2023-01-21T01:15:25.176Z,99820.41
2023-01-21T01:19:30.004Z,99795.38
2023-01-21T01:23:33.329Z,99819.31
2023-01-21T01:27:37.360Z,99795.19
2023-01-21T01:31:40.789Z,99779.09
2023-01-21T01:35:47.333Z,99780.88
2023-01-21T01:39:50.225Z,99777.56
2023-01-21T01:43:59.952Z,99776.78
2023-01-21T01:48:06.648Z,99768.19
2023-01-21T01:52:14.258Z,99762.22
2023-01-21T01:56:19.061Z,99752.78
2023-01-21T02:00:23.062Z,99754.53
2023-01-21T02:04:33.409Z,99751.16
2023-01-21T02:08:39.374Z,99739.84
2023-01-21T02:12:45.995Z,99731.25
2023-01-21T02:16:58.794Z,99728.63
2023-01-21T02:21:29.095Z,99733.75
2023-01-21T02:25:58.167Z,99719.16
2023-01-21T02:30:35.153Z,99721.88
2023-01-21T02:34:45.273Z,99714.03
2023-01-21T02:38:53.987Z,99703.72
2023-01-21T02:43:03.410Z,99700.22
2023-01-21T02:47:13.536Z,99702.13
2023-01-21T02:51:20.976Z,99698.47
2023-01-21T02:55:28.380Z,99694.19
2023-01-21T02:59:31.767Z,99699.44
2023-01-21T03:03:48.457Z,99702.97
2023-01-21T03:07:54.686Z,99701.28
2023-01-21T03:12:09.132Z,99685.66
2023-01-21T03:16:46.119Z,99678.72
2023-01-21T03:20:53.920Z,99675.25
2023-01-21T03:25:00.531Z,99662.28
2023-01-21T03:29:08.818Z,99655.47
2023-01-21T03:33:14.523Z,99664.97
2023-01-21T03:37:23.455Z,99650.41
2023-01-21T03:41:36.824Z,99619.25
2023-01-21T03:45:46.555Z,99602.84
2023-01-21T03:49:54.730Z,99606.38
2023-01-21T03:53:59.213Z,99606.28
2023-01-21T03:58:03.490Z,99602.91
2023-01-21T04:02:06.249Z,99608.13
2023-01-21T04:06:11.172Z,99614.16
2023-01-21T04:10:14.579Z,99603.69
2023-01-21T04:14:19.118Z,99607.13
2023-01-21T04:18:22.215Z,99612.34
2023-01-21T04:22:25.279Z,99628.88
2023-01-21T04:26:28.524Z,99639.22
2023-01-21T04:30:32.825Z,99633.13
2023-01-21T04:34:35.923Z,99628.00
2023-01-21T04:38:39.151Z,99632.28
2023-01-21T04:42:44.010Z,99630.63
2023-01-21T04:46:48.664Z,99631.38
2023-01-21T04:50:52.002Z,99630.59
2023-01-21T04:54:55.200Z,99624.53
2023-01-21T04:58:58.490Z,99629.69
2023-01-21T05:03:02.971Z,99637.41
2023-01-21T05:07:06.283Z,99628.91
2023-01-21T05:11:10.274Z,99625.50
2023-01-21T05:15:14.022Z,99618.50
2023-01-21T05:19:18.349Z,99621.06
2023-01-21T05:23:21.794Z,99622.81
2023-01-21T05:27:25.061Z,99627.94
2023-01-21T05:31:30.417Z,99624.50
2023-01-21T05:35:38.709Z,99620.22
2023-01-21T05:39:42.239Z,99614.16
2023-01-21T05:43:45.618Z,99623.69
2023-01-21T05:47:48.488Z,99614.16
2023-01-21T05:51:52.921Z,99635.72
2023-01-21T05:55:57.018Z,99613.19
2023-01-21T06:00:00.227Z,99618.50
2023-01-21T06:04:04.781Z,99627.03
2023-01-21T06:08:11.618Z,99626.09
2023-01-21T06:12:17.289Z,99626.94
2023-01-21T06:16:20.308Z,99632.28
2023-01-21T06:20:23.829Z,99623.69
2023-01-21T06:24:28.259Z,99622.69
2023-01-21T06:28:31.970Z,99624.41
2023-01-21T06:32:34.902Z,99626.06
2023-01-21T06:36:37.778Z,99626.09
2023-01-21T06:40:42.309Z,99625.22
2023-01-21T06:44:45.366Z,99632.91
2023-01-21T06:48:48.516Z,99635.34
2023-01-21T06:52:51.898Z,99627.53
2023-01-21T06:56:56.350Z,99634.38
2023-01-21T07:00:59.423Z,99626.66
2023-01-21T07:05:02.964Z,99624.00
2023-01-21T07:09:06.549Z,99636.00
2023-01-21T07:13:11.132Z,99641.91
2023-01-21T07:17:14.261Z,99642.88
2023-01-21T07:21:17.367Z,99632.50
2023-01-21T07:25:20.379Z,99633.19
2023-01-21T07:29:25.026Z,99635.66
2023-01-21T07:33:28.740Z,99636.28
2023-01-21T07:37:31.475Z,99629.25
2023-01-21T07:41:34.692Z,99618.91
2023-01-21T07:45:39.275Z,99623.16
2023-01-21T07:49:42.534Z,99620.38
2023-01-21T07:53:45.663Z,99624.47
2023-01-21T07:57:48.825Z,99621.97
2023-01-21T08:01:53.507Z,99620.88
2023-01-21T08:05:56.488Z,99635.53
2023-01-21T08:09:59.662Z,99646.00
2023-01-21T08:14:03.293Z,99634.09
2023-01-21T08:18:08.026Z,99639.16
2023-01-21T08:22:11.365Z,99642.50
2023-01-21T08:26:14.743Z,99636.22
2023-01-21T08:30:18.506Z,99633.59
2023-01-21T08:34:23.777Z,99638.34
2023-01-21T08:38:26.995Z,99640.75
2023-01-21T08:42:30.533Z,99643.88
2023-01-21T08:46:33.537Z,99649.94
2023-01-21T08:50:38.169Z,99660.13
2023-01-21T08:54:50.417Z,99656.34
2023-01-21T08:58:57.344Z,99647.59
2023-01-21T09:03:01.313Z,99653.56
2023-01-21T09:07:05.904Z,99661.47
2023-01-21T09:11:10.361Z,99657.13
2023-01-21T09:15:13.980Z,99666.75
2023-01-21T09:19:16.780Z,99669.63
2023-01-21T09:23:28.386Z,99668.66
2023-01-21T09:27:31.685Z,99669.53
2023-01-21T09:31:35.104Z,99673.88
2023-01-21T09:35:38.533Z,99675.28
2023-01-21T09:39:42.777Z,99668.22
2023-01-21T09:43:49.608Z,99674.19
2023-01-21T09:47:55.377Z,99678.44
2023-01-21T09:52:07.708Z,99675.81
2023-01-21T09:56:22.931Z,99670.75
2023-01-21T10:00:32.776Z,99677.53
2023-01-21T10:04:47.271Z,99679.06
2023-01-21T10:09:14.168Z,99682.63
2023-01-21T10:13:38.305Z,99682.66
2023-01-21T10:17:53.543Z,99674.94
2023-01-21T10:22:01.818Z,99686.97
2023-01-21T10:26:09.236Z,99689.31
2023-01-21T10:30:26.948Z,99694.47
2023-01-21T10:34:32.513Z,99692.66
2023-01-21T10:38:45.678Z,99697.00
2023-01-21T10:42:59.328Z,99702.19
2023-01-21T10:47:13.628Z,99708.25
2023-01-21T10:51:22.396Z,99714.47
2023-01-21T10:55:35.234Z,99716.31
2023-01-21T10:59:38.908Z,99716.31
2023-01-21T11:03:45.777Z,99723.38
2023-01-21T11:07:50.044Z,99721.59
2023-01-21T11:11:54.222Z,99736.44
2023-01-21T11:15:59.206Z,99736.38
2023-01-21T11:20:06.603Z,99734.50
2023-01-21T11:24:26.194Z,99735.22
2023-01-21T11:28:33.894Z,99731.66
2023-01-21T11:32:36.598Z,99742.13
2023-01-21T11:36:56.213Z,99746.72
2023-01-21T11:41:07.523Z,99756.31
2023-01-21T11:45:29.347Z,99763.09
2023-01-21T11:49:34.213Z,99761.34
2023-01-21T11:53:39.197Z,99764.47
2023-01-21T11:57:44.320Z,99775.69
2023-01-21T12:01:53.690Z,99777.59
2023-01-21T12:05:56.897Z,99788.13
2023-01-21T12:10:10.176Z,99784.69
2023-01-21T12:14:25.012Z,99786.38
2023-01-21T12:18:39.353Z,99806.38
2023-01-21T12:22:57.700Z,99796.13
2023-01-21T12:27:12.101Z,99800.53
2023-01-21T12:31:25.308Z,99807.91
2023-01-21T12:35:34.867Z,99817.66
2023-01-21T12:39:39.401Z,99821.03
2023-01-21T12:43:49.602Z,99818.63
2023-01-21T12:47:56.440Z,99831.63
2023-01-21T12:52:04.501Z,99829.97
2023-01-21T12:56:22.491Z,99839.38
2023-01-21T13:00:31.372Z,99848.03
2023-01-21T13:04:48.024Z,99850.63
2023-01-21T13:08:58.508Z,99854.03
2023-01-21T13:13:06.201Z,99869.63
2023-01-21T13:17:16.515Z,99877.34
2023-01-21T13:21:28.456Z,99883.53
2023-01-21T13:25:44.073Z,99879.22
2023-01-21T13:29:53.998Z,99885.94
2023-01-21T13:34:06.094Z,99890.38
2023-01-21T13:38:22.526Z,99892.16
2023-01-21T13:42:37.348Z,99887.81
2023-01-21T13:47:00.540Z,99903.44
2023-01-21T13:51:27.907Z,99911.38
2023-01-21T13:55:46.243Z,99920.09
2023-01-21T13:59:56.315Z,99928.66
2023-01-21T14:04:04.948Z,99937.16
2023-01-21T14:08:14.142Z,99937.22
2023-01-21T14:12:24.708Z,99950.03
2023-01-21T14:16:38.875Z,99951.34
2023-01-21T14:21:24.894Z,99964.44
2023-01-21T14:25:40.657Z,99971.59
2023-01-21T14:29:46.972Z,99978.53
2023-01-21T14:33:54.356Z,99987.28
2023-01-21T14:38:09.525Z,99989.00
2023-01-21T14:42:16.544Z,99993.28
2023-01-21T14:46:34.331Z,100012.31
2023-01-21T14:50:54.038Z,100013.09
2023-01-21T14:54:57.268Z,100017.72
2023-01-21T14:59:04.728Z,100037.47
2023-01-21T15:03:17.998Z,100049.47
2023-01-21T15:07:21.940Z,100059.00
2023-01-21T15:11:31.695Z,100058.16
2023-01-21T15:15:41.559Z,100066.88
2023-01-21T15:19:45.258Z,100073.75
2023-01-21T15:23:51.846Z,100079.78
2023-01-21T15:28:36.594Z,100081.47
2023-01-21T15:32:45.832Z,100094.66
2023-01-21T15:36:53.326Z,100095.41
2023-01-21T15:41:01.676Z,100093.59
2023-01-21T15:45:29.322Z,100104.84
2023-01-21T15:49:53.587Z,100114.38
2023-01-21T15:54:10.696Z,100115.22
2023-01-21T15:58:24.157Z,100124.78
2023-01-21T16:02:30.351Z,100138.56
2023-01-21T16:06:44.524Z,100141.03
2023-01-21T16:11:01.226Z,100134.03
2023-01-21T16:15:13.526Z,100147.03
2023-01-21T16:19:19.533Z,100155.78
2023-01-21T16:23:27.892Z,100161.75
2023-01-21T16:27:33.557Z,100170.44
2023-01-21T16:31:46.831Z,100174.78
2023-01-21T16:35:51.692Z,100181.72
2023-01-21T16:39:58.787Z,100192.19
2023-01-21T16:44:05.571Z,100198.25
2023-01-21T16:48:21.982Z,100210.31
2023-01-21T16:52:25.316Z,100213.88
2023-01-21T16:56:31.252Z,100219.84
2023-01-21T17:00:34.817Z,100231.13
2023-01-21T17:04:38.090Z,100238.03
2023-01-21T17:08:42.102Z,100245.84
2023-01-21T17:12:50.561Z,100241.59
2023-01-21T17:17:00.638Z,100247.66
2023-01-21T17:21:09.649Z,100252.78
2023-01-21T17:25:29.615Z,100254.44
2023-01-21T17:29:35.517Z,100268.28
2023-01-21T17:33:38.498Z,100264.84
2023-01-21T17:37:47.003Z,100275.25
2023-01-21T17:41:50.084Z,100286.53
2023-01-21T17:45:56.012Z,100294.38
2023-01-21T17:50:02.126Z,100302.88
2023-01-21T17:54:09.695Z,100309.84
2023-01-21T17:58:47.089Z,100316.78
2023-01-21T18:02:51.844Z,100321.97
2023-01-21T18:06:56.765Z,100317.72
2023-01-21T18:10:59.956Z,100330.69
2023-01-21T18:15:03.063Z,100333.31
2023-01-21T18:19:07.578Z,100345.53
2023-01-21T18:23:12.990Z,100355.00
2023-01-21T18:27:16.452Z,100356.66
2023-01-21T18:31:20.677Z,100368.84
2023-01-21T18:35:29.533Z,100378.34
2023-01-21T18:39:33.602Z,100380.13
2023-01-21T18:43:36.561Z,100377.53
2023-01-21T18:47:39.671Z,100392.97
2023-01-21T18:51:44.473Z,100389.50
2023-01-21T18:55:50.957Z,100398.19
2023-01-21T18:59:54.259Z,100396.50
2023-01-21T19:03:57.372Z,100405.03
2023-01-21T19:08:03.691Z,100403.41
2023-01-21T19:12:07.640Z,100409.53
2023-01-21T19:16:16.261Z,100418.84
2023-01-21T19:20:21.017Z,100418.97
2023-01-21T19:24:25.975Z,100421.69
2023-01-21T19:28:29.535Z,100426.78
2023-01-21T19:32:36.666Z,100437.19
2023-01-21T19:36:41.361Z,100449.34
2023-01-21T19:40:47.186Z,100455.56
2023-01-21T19:44:50.496Z,100466.75
2023-01-21T19:48:53.944Z,100474.44
2023-01-21T19:52:57.449Z,100475.34
2023-01-21T19:57:02.750Z,100480.53
2023-01-21T20:01:13.251Z,100490.03
2023-01-21T20:05:21.658Z,100491.03
2023-01-21T20:09:24.866Z,100504.84
2023-01-21T20:13:32.460Z,100502.41
2023-01-21T20:17:36.036Z,100517.97
2023-01-21T20:21:54.729Z,100518.81
2023-01-21T20:26:08.411Z,100528.38
2023-01-21T20:30:18.869Z,100529.97
2023-01-21T20:34:22.012Z,100534.38
2023-01-21T20:38:29.144Z,100541.28
2023-01-21T20:42:32.353Z,100548.28
2023-01-21T20:46:37.042Z,100544.81
2023-01-21T20:50:41.491Z,100550.03
2023-01-21T20:54:44.758Z,100546.63
2023-01-21T20:58:49.130Z,100559.63
2023-01-21T21:02:57.948Z,100567.41
2023-01-21T21:07:01.312Z,100566.47
2023-01-21T21:11:04.523Z,100576.88
2023-01-21T21:15:09.144Z,100581.28
2023-01-21T21:19:16.903Z,100584.78
2023-01-21T21:23:21.218Z,100595.22
2023-01-21T21:27:24.538Z,100598.63
2023-01-21T21:31:32.147Z,100600.34
2023-01-21T21:35:39.978Z,100598.63
2023-01-21T21:39:46.670Z,100598.78
2023-01-21T21:43:51.202Z,100615.19
2023-01-21T21:48:11.181Z,100617.81
2023-01-21T21:52:18.035Z,100622.94
2023-01-21T21:56:22.689Z,100635.03
2023-01-21T22:00:28.931Z,100641.13
2023-01-21T22:04:31.580Z,100645.47
2023-01-21T22:08:37.962Z,100648.00
2023-01-21T22:12:40.953Z,100650.59
2023-01-21T22:16:44.559Z,100656.69
2023-01-21T22:20:47.499Z,100662.78
2023-01-21T22:24:54.559Z,100667.13
2023-01-21T22:29:01.189Z,100675.75
2023-01-21T22:33:04.097Z,100674.88
2023-01-21T22:37:07.241Z,100669.72
2023-01-21T22:41:13.918Z,100684.47
2023-01-21T22:45:17.815Z,100684.50
2023-01-21T22:49:22.490Z,100682.81
2023-01-21T22:53:26.842Z,100694.97
2023-01-21T22:57:31.666Z,100691.47
2023-01-21T23:01:36.701Z,100706.22
2023-01-21T23:05:40.084Z,100693.22
2023-01-21T23:09:43.097Z,100696.69
2023-01-21T23:13:48.099Z,100698.44
2023-01-21T23:17:51.583Z,100703.63
2023-01-21T23:21:54.741Z,100703.63
2023-01-21T23:25:57.743Z,100693.22
2023-01-21T23:30:01.734Z,100693.22
2023-01-21T23:34:05.361Z,100693.28
2023-01-21T23:38:09.000Z,100696.81
2023-01-21T23:42:12.372Z,100711.53
2023-01-21T23:46:19.951Z,100708.03
2023-01-21T23:50:23.380Z,100721.03
2023-01-21T23:54:26.517Z,100715.75
2023-01-21T23:58:29.665Z,100714.03
